sensor_id;sensor_type;location;lat;lon;timestamp;P1;P2;P0
44933;PMS3003;30667;43.614;1.442;2024-03-23T00:56:14;18.60;18.00;11.80
44933;PMS3003;30667;43.614;1.442;2024-03-23T00:58:40;18.50;18.50;11.75
44933;PMS3003;30667;43.614;1.442;2024-03-23T01:01:05;18.50;17.75;11.00
44933;PMS3003;30667;43.614;1.442;2024-03-23T01:03:30;19.25;18.00;11.50
44933;PMS3003;30667;43.614;1.442;2024-03-23T01:05:59;18.75;18.00;11.75
44933;PMS3003;30667;43.614;1.442;2024-03-23T01:08:25;18.00;16.40;11.20
44933;PMS3003;30667;43.614;1.442;2024-03-23T01:10:57;18.50;18.00;12.75
44933;PMS3003;30667;43.614;1.442;2024-03-23T01:13:23;20.00;17.00;10.80
44933;PMS3003;30667;43.614;1.442;2024-03-23T01:15:49;18.50;15.75;10.00
44933;PMS3003;30667;43.614;1.442;2024-03-23T01:18:16;17.80;17.80;12.20
44933;PMS3003;30667;43.614;1.442;2024-03-23T01:20:43;18.00;17.60;11.80
44933;PMS3003;30667;43.614;1.442;2024-03-23T01:23:08;16.00;16.00;10.25
44933;PMS3003;30667;43.614;1.442;2024-03-23T01:25:34;20.50;20.50;12.50
44933;PMS3003;30667;43.614;1.442;2024-03-23T01:27:59;20.00;18.00;12.00
44933;PMS3003;30667;43.614;1.442;2024-03-23T01:30:24;18.75;17.75;11.25
44933;PMS3003;30667;43.614;1.442;2024-03-23T01:32:50;18.25;18.25;10.75
44933;PMS3003;30667;43.614;1.442;2024-03-23T01:35:15;18.50;17.25;11.00
44933;PMS3003;30667;43.614;1.442;2024-03-23T01:37:41;20.25;17.00;10.25
44933;PMS3003;30667;43.614;1.442;2024-03-23T01:40:06;20.75;18.25;13.00
44933;PMS3003;30667;43.614;1.442;2024-03-23T01:42:32;19.60;17.80;12.60
44933;PMS3003;30667;43.614;1.442;2024-03-23T01:44:57;17.75;16.75;11.75
44933;PMS3003;30667;43.614;1.442;2024-03-23T01:47:23;21.25;20.00;13.00
44933;PMS3003;30667;43.614;1.442;2024-03-23T01:49:48;20.00;20.00;12.50
44933;PMS3003;30667;43.614;1.442;2024-03-23T01:52:14;19.50;19.00;12.75
44933;PMS3003;30667;43.614;1.442;2024-03-23T01:54:40;20.75;19.25;12.00
44933;PMS3003;30667;43.614;1.442;2024-03-23T01:57:06;19.00;17.80;11.20
44933;PMS3003;30667;43.614;1.442;2024-03-23T01:59:31;19.00;18.00;12.00
44933;PMS3003;30667;43.614;1.442;2024-03-23T02:01:57;18.80;18.00;10.80
44933;PMS3003;30667;43.614;1.442;2024-03-23T02:04:23;20.00;18.50;11.25
44933;PMS3003;30667;43.614;1.442;2024-03-23T02:06:48;19.00;18.00;11.00
44933;PMS3003;30667;43.614;1.442;2024-03-23T02:09:14;18.00;17.00;10.00
44933;PMS3003;30667;43.614;1.442;2024-03-23T02:11:40;16.20;16.20;10.00
44933;PMS3003;30667;43.614;1.442;2024-03-23T02:14:05;21.50;18.00;10.00
44933;PMS3003;30667;43.614;1.442;2024-03-23T02:16:32;18.00;16.80;9.40
44933;PMS3003;30667;43.614;1.442;2024-03-23T02:18:58;16.50;14.00;8.00
44933;PMS3003;30667;43.614;1.442;2024-03-23T02:21:23;16.50;16.00;9.00
44933;PMS3003;30667;43.614;1.442;2024-03-23T02:23:49;11.75;11.75;7.00
44933;PMS3003;30667;43.614;1.442;2024-03-23T02:26:14;16.75;16.00;9.75
44933;PMS3003;30667;43.614;1.442;2024-03-23T02:28:40;21.00;19.00;13.50
44933;PMS3003;30667;43.614;1.442;2024-03-23T02:31:05;14.00;11.75;8.00
44933;PMS3003;30667;43.614;1.442;2024-03-23T02:33:31;19.00;19.00;12.00
44933;PMS3003;30667;43.614;1.442;2024-03-23T02:35:57;17.20;16.60;11.00
44933;PMS3003;30667;43.614;1.442;2024-03-23T02:38:23;14.75;14.75;9.00
44933;PMS3003;30667;43.614;1.442;2024-03-23T02:40:49;12.50;11.75;7.50
44933;PMS3003;30667;43.614;1.442;2024-03-23T02:43:14;11.25;11.25;6.50
44933;PMS3003;30667;43.614;1.442;2024-03-23T02:45:40;11.00;11.00;7.00
44933;PMS3003;30667;43.614;1.442;2024-03-23T02:48:05;15.00;12.25;7.00
44933;PMS3003;30667;43.614;1.442;2024-03-23T02:50:31;12.00;11.00;5.00
44933;PMS3003;30667;43.614;1.442;2024-03-23T02:55:31;10.20;10.20;5.60
44933;PMS3003;30667;43.614;1.442;2024-03-23T02:57:57;11.00;10.75;5.50
44933;PMS3003;30667;43.614;1.442;2024-03-23T03:00:26;10.80;8.80;4.00
44933;PMS3003;30667;43.614;1.442;2024-03-23T03:02:52;10.00;9.00;4.25
44933;PMS3003;30667;43.614;1.442;2024-03-23T03:05:17;8.00;7.50;4.00
44933;PMS3003;30667;43.614;1.442;2024-03-23T03:07:43;9.25;8.50;4.25
44933;PMS3003;30667;43.614;1.442;2024-03-23T03:10:08;9.00;9.00;4.25
44933;PMS3003;30667;43.614;1.442;2024-03-23T03:12:36;8.00;6.80;4.00
44933;PMS3003;30667;43.614;1.442;2024-03-23T03:15:02;11.20;9.40;5.00
44933;PMS3003;30667;43.614;1.442;2024-03-23T03:17:29;8.20;8.20;3.60
44933;PMS3003;30667;43.614;1.442;2024-03-23T03:19:55;8.50;8.00;4.00
44933;PMS3003;30667;43.614;1.442;2024-03-23T03:22:21;8.00;7.00;3.75
44933;PMS3003;30667;43.614;1.442;2024-03-23T03:24:47;9.60;9.00;4.00
44933;PMS3003;30667;43.614;1.442;2024-03-23T03:27:13;8.50;8.25;4.25
44933;PMS3003;30667;43.614;1.442;2024-03-23T03:29:38;10.25;9.00;4.25
44933;PMS3003;30667;43.614;1.442;2024-03-23T03:32:04;8.00;8.00;4.00
44933;PMS3003;30667;43.614;1.442;2024-03-23T03:34:29;9.00;9.00;4.25
44933;PMS3003;30667;43.614;1.442;2024-03-23T03:36:55;9.00;8.00;3.75
44933;PMS3003;30667;43.614;1.442;2024-03-23T03:39:21;8.80;8.20;4.40
44933;PMS3003;30667;43.614;1.442;2024-03-23T03:41:47;8.80;7.80;4.00
44933;PMS3003;30667;43.614;1.442;2024-03-23T03:44:13;10.20;8.60;4.20
44933;PMS3003;30667;43.614;1.442;2024-03-23T03:46:39;9.00;8.00;4.00
44933;PMS3003;30667;43.614;1.442;2024-03-23T03:49:04;8.75;8.00;6.00
44933;PMS3003;30667;43.614;1.442;2024-03-23T03:51:30;8.00;8.00;4.00
44933;PMS3003;30667;43.614;1.442;2024-03-23T03:53:55;7.50;7.50;4.00
44933;PMS3003;30667;43.614;1.442;2024-03-23T03:56:21;8.75;7.00;3.25
44933;PMS3003;30667;43.614;1.442;2024-03-23T03:58:47;8.00;8.00;4.40
44933;PMS3003;30667;43.614;1.442;2024-03-23T04:01:13;6.00;6.00;3.00
44933;PMS3003;30667;43.614;1.442;2024-03-23T04:03:38;8.25;7.50;3.50
44933;PMS3003;30667;43.614;1.442;2024-03-23T04:06:08;11.00;9.00;4.00
44933;PMS3003;30667;43.614;1.442;2024-03-23T04:08:34;8.40;8.20;3.80
44933;PMS3003;30667;43.614;1.442;2024-03-23T04:10:59;7.00;7.00;3.00
44933;PMS3003;30667;43.614;1.442;2024-03-23T04:13:25;10.00;9.00;3.75
44933;PMS3003;30667;43.614;1.442;2024-03-23T04:15:53;8.00;8.00;4.00
44933;PMS3003;30667;43.614;1.442;2024-03-23T04:18:20;8.60;8.00;5.60
44933;PMS3003;30667;43.614;1.442;2024-03-23T04:20:46;10.60;9.00;4.00
44933;PMS3003;30667;43.614;1.442;2024-03-23T04:23:12;11.75;8.00;4.00
44933;PMS3003;30667;43.614;1.442;2024-03-23T04:25:37;8.50;8.25;3.00
44933;PMS3003;30667;43.614;1.442;2024-03-23T04:28:02;8.00;7.75;4.00
44933;PMS3003;30667;43.614;1.442;2024-03-23T04:30:29;7.00;5.80;3.00
44933;PMS3003;30667;43.614;1.442;2024-03-23T04:32:55;5.50;5.50;2.00
44933;PMS3003;30667;43.614;1.442;2024-03-23T04:35:21;8.00;6.00;2.00
44933;PMS3003;30667;43.614;1.442;2024-03-23T04:37:50;7.00;7.00;3.00
44933;PMS3003;30667;43.614;1.442;2024-03-23T04:40:17;6.40;6.40;3.00
44933;PMS3003;30667;43.614;1.442;2024-03-23T04:42:43;6.25;6.00;3.00
44933;PMS3003;30667;43.614;1.442;2024-03-23T04:45:09;7.60;7.00;3.00
44933;PMS3003;30667;43.614;1.442;2024-03-23T04:47:35;6.20;6.20;3.00
44933;PMS3003;30667;43.614;1.442;2024-03-23T04:50:02;4.80;4.80;2.00
44933;PMS3003;30667;43.614;1.442;2024-03-23T04:52:29;4.80;4.80;1.40
44933;PMS3003;30667;43.614;1.442;2024-03-23T04:54:54;6.40;6.00;2.80
44933;PMS3003;30667;43.614;1.442;2024-03-23T04:57:20;6.00;4.50;2.00
44933;PMS3003;30667;43.614;1.442;2024-03-23T04:59:46;8.00;5.50;2.00
44933;PMS3003;30667;43.614;1.442;2024-03-23T05:02:12;6.60;4.00;2.00
44933;PMS3003;30667;43.614;1.442;2024-03-23T05:04:38;6.40;6.00;2.00
44933;PMS3003;30667;43.614;1.442;2024-03-23T05:07:03;7.00;7.00;2.00
44933;PMS3003;30667;43.614;1.442;2024-03-23T05:09:32;6.80;6.20;2.00
44933;PMS3003;30667;43.614;1.442;2024-03-23T05:11:58;5.80;5.80;2.00
44933;PMS3003;30667;43.614;1.442;2024-03-23T05:14:25;6.40;6.00;1.40
44933;PMS3003;30667;43.614;1.442;2024-03-23T05:16:51;3.60;3.20;1.40
44933;PMS3003;30667;43.614;1.442;2024-03-23T05:19:17;6.40;6.00;2.00
44933;PMS3003;30667;43.614;1.442;2024-03-23T05:21:43;5.00;5.00;1.50
44933;PMS3003;30667;43.614;1.442;2024-03-23T05:24:08;5.00;4.00;2.00
44933;PMS3003;30667;43.614;1.442;2024-03-23T05:26:34;6.50;6.00;2.00
44933;PMS3003;30667;43.614;1.442;2024-03-23T05:29:00;7.00;6.00;2.00
44933;PMS3003;30667;43.614;1.442;2024-03-23T05:31:27;5.00;4.00;2.00
44933;PMS3003;30667;43.614;1.442;2024-03-23T05:33:53;5.80;3.80;1.00
44933;PMS3003;30667;43.614;1.442;2024-03-23T05:36:19;5.20;4.40;1.00
44933;PMS3003;30667;43.614;1.442;2024-03-23T05:38:45;6.20;4.00;1.60
44933;PMS3003;30667;43.614;1.442;2024-03-23T05:41:10;4.50;4.00;1.00
44933;PMS3003;30667;43.614;1.442;2024-03-23T05:43:36;4.00;4.00;2.00
44933;PMS3003;30667;43.614;1.442;2024-03-23T05:46:01;6.75;5.50;1.75
44933;PMS3003;30667;43.614;1.442;2024-03-23T05:48:27;5.60;4.00;1.40
44933;PMS3003;30667;43.614;1.442;2024-03-23T05:50:55;5.20;4.80;2.00
44933;PMS3003;30667;43.614;1.442;2024-03-23T05:53:20;4.00;4.00;1.00
44933;PMS3003;30667;43.614;1.442;2024-03-23T05:55:46;4.00;4.00;1.00
44933;PMS3003;30667;43.614;1.442;2024-03-23T05:58:14;3.80;3.40;1.00
44933;PMS3003;30667;43.614;1.442;2024-03-23T06:00:40;5.20;4.40;2.00
44933;PMS3003;30667;43.614;1.442;2024-03-23T06:03:07;4.40;3.60;2.00
44933;PMS3003;30667;43.614;1.442;2024-03-23T06:05:33;5.50;4.00;1.25
44933;PMS3003;30667;43.614;1.442;2024-03-23T06:07:58;5.50;5.50;2.00
44933;PMS3003;30667;43.614;1.442;2024-03-23T06:10:23;6.00;6.00;3.00
44933;PMS3003;30667;43.614;1.442;2024-03-23T06:12:49;4.00;4.00;1.00
44933;PMS3003;30667;43.614;1.442;2024-03-23T06:15:17;4.00;3.60;1.00
44933;PMS3003;30667;43.614;1.442;2024-03-23T06:17:43;6.40;4.60;1.20
44933;PMS3003;30667;43.614;1.442;2024-03-23T06:20:08;3.00;3.00;1.50
44933;PMS3003;30667;43.614;1.442;2024-03-23T06:22:35;2.80;2.80;0.80
44933;PMS3003;30667;43.614;1.442;2024-03-23T06:25:00;3.25;3.25;1.00
44933;PMS3003;30667;43.614;1.442;2024-03-23T06:27:26;4.00;3.50;1.00
44933;PMS3003;30667;43.614;1.442;2024-03-23T06:29:51;6.00;5.00;2.00
44933;PMS3003;30667;43.614;1.442;2024-03-23T06:32:17;6.25;4.00;1.00
44933;PMS3003;30667;43.614;1.442;2024-03-23T06:34:43;4.20;4.00;1.00
44933;PMS3003;30667;43.614;1.442;2024-03-23T06:37:08;6.25;6.00;1.00
44933;PMS3003;30667;43.614;1.442;2024-03-23T06:39:37;4.00;4.00;2.00
44933;PMS3003;30667;43.614;1.442;2024-03-23T06:42:03;5.60;5.40;2.00
44933;PMS3003;30667;43.614;1.442;2024-03-23T06:44:29;5.80;5.00;2.00
44933;PMS3003;30667;43.614;1.442;2024-03-23T06:46:55;4.00;4.00;1.00
44933;PMS3003;30667;43.614;1.442;2024-03-23T06:49:20;5.40;5.40;1.00
44933;PMS3003;30667;43.614;1.442;2024-03-23T06:51:46;4.50;4.00;2.00
44933;PMS3003;30667;43.614;1.442;2024-03-23T06:54:11;6.00;3.75;1.00
44933;PMS3003;30667;43.614;1.442;2024-03-23T06:56:37;4.25;4.25;1.50
44933;PMS3003;30667;43.614;1.442;2024-03-23T06:59:03;6.00;6.00;2.00
44933;PMS3003;30667;43.614;1.442;2024-03-23T07:01:28;4.75;4.75;2.00
44933;PMS3003;30667;43.614;1.442;2024-03-23T07:03:54;5.75;5.75;1.00
44933;PMS3003;30667;43.614;1.442;2024-03-23T07:06:19;8.20;4.60;2.00
44933;PMS3003;30667;43.614;1.442;2024-03-23T07:08:45;6.25;6.00;2.00
44933;PMS3003;30667;43.614;1.442;2024-03-23T07:11:10;5.75;4.00;2.00
44933;PMS3003;30667;43.614;1.442;2024-03-23T07:13:35;6.00;5.50;2.00
44933;PMS3003;30667;43.614;1.442;2024-03-23T07:16:01;4.25;4.25;1.50
44933;PMS3003;30667;43.614;1.442;2024-03-23T07:18:26;6.75;4.50;2.00
44933;PMS3003;30667;43.614;1.442;2024-03-23T07:20:55;4.25;3.50;1.00
44933;PMS3003;30667;43.614;1.442;2024-03-23T07:23:24;3.00;3.00;1.00
44933;PMS3003;30667;43.614;1.442;2024-03-23T07:25:56;1.80;1.80;0.00
44933;PMS3003;30667;43.614;1.442;2024-03-23T07:28:32;1.60;1.60;0.00
44933;PMS3003;30667;43.614;1.442;2024-03-23T07:31:06;2.40;1.00;0.00
44933;PMS3003;30667;43.614;1.442;2024-03-23T07:33:36;0.60;0.60;0.00
44933;PMS3003;30667;43.614;1.442;2024-03-23T07:36:12;0.20;0.20;0.00
44933;PMS3003;30667;43.614;1.442;2024-03-23T07:38:41;0.40;0.00;0.00
44933;PMS3003;30667;43.614;1.442;2024-03-23T07:41:08;1.00;0.00;0.00
44933;PMS3003;30667;43.614;1.442;2024-03-23T07:43:35;0.00;0.00;0.00
44933;PMS3003;30667;43.614;1.442;2024-03-23T07:46:02;0.00;0.00;0.00
44933;PMS3003;30667;43.614;1.442;2024-03-23T07:48:29;0.00;0.00;0.00
44933;PMS3003;30667;43.614;1.442;2024-03-23T07:50:58;0.20;0.20;0.00
44933;PMS3003;30667;43.614;1.442;2024-03-23T07:53:35;0.20;0.20;0.00
44933;PMS3003;30667;43.614;1.442;2024-03-23T07:56:03;1.00;1.00;0.00
44933;PMS3003;30667;43.614;1.442;2024-03-23T07:58:32;0.80;0.80;0.00
44933;PMS3003;30667;43.614;1.442;2024-03-23T08:01:03;1.00;1.00;0.00
44933;PMS3003;30667;43.614;1.442;2024-03-23T08:03:38;1.60;1.60;0.00
44933;PMS3003;30667;43.614;1.442;2024-03-23T08:06:12;2.80;1.00;0.00
44933;PMS3003;30667;43.614;1.442;2024-03-23T08:08:42;2.80;2.00;0.00
44933;PMS3003;30667;43.614;1.442;2024-03-23T08:11:10;1.00;0.60;0.00
44933;PMS3003;30667;43.614;1.442;2024-03-23T08:13:37;1.00;1.00;0.00
44933;PMS3003;30667;43.614;1.442;2024-03-23T08:16:06;1.00;1.00;0.00
44933;PMS3003;30667;43.614;1.442;2024-03-23T08:18:33;1.00;1.00;0.00
44933;PMS3003;30667;43.614;1.442;2024-03-23T08:23:35;2.00;1.00;0.00
44933;PMS3003;30667;43.614;1.442;2024-03-23T08:26:08;2.00;2.00;0.00
44933;PMS3003;30667;43.614;1.442;2024-03-23T08:28:35;3.00;2.00;0.00
44933;PMS3003;30667;43.614;1.442;2024-03-23T08:31:02;2.00;2.00;0.00
44933;PMS3003;30667;43.614;1.442;2024-03-23T08:33:30;3.00;2.00;0.00
44933;PMS3003;30667;43.614;1.442;2024-03-23T08:35:57;3.00;2.50;0.00
44933;PMS3003;30667;43.614;1.442;2024-03-23T08:38:23;4.00;2.20;0.00
44933;PMS3003;30667;43.614;1.442;2024-03-23T08:40:59;1.60;1.60;0.00
44933;PMS3003;30667;43.614;1.442;2024-03-23T08:43:28;2.00;1.00;0.00
44933;PMS3003;30667;43.614;1.442;2024-03-23T08:46:02;2.00;2.00;0.00
44933;PMS3003;30667;43.614;1.442;2024-03-23T08:48:29;2.00;2.00;0.00
44933;PMS3003;30667;43.614;1.442;2024-03-23T08:51:13;1.25;1.25;0.00
44933;PMS3003;30667;43.614;1.442;2024-03-23T08:53:40;2.60;2.20;0.00
44933;PMS3003;30667;43.614;1.442;2024-03-23T08:56:06;3.40;2.60;0.00
44933;PMS3003;30667;43.614;1.442;2024-03-23T08:58:33;1.80;1.00;0.00
44933;PMS3003;30667;43.614;1.442;2024-03-23T09:01:06;2.60;1.60;0.00
44933;PMS3003;30667;43.614;1.442;2024-03-23T09:03:33;5.00;3.00;1.00
44933;PMS3003;30667;43.614;1.442;2024-03-23T09:06:00;3.40;2.00;0.00
44933;PMS3003;30667;43.614;1.442;2024-03-23T09:08:26;2.40;2.00;0.00
44933;PMS3003;30667;43.614;1.442;2024-03-23T09:10:51;2.75;2.75;0.00
44933;PMS3003;30667;43.614;1.442;2024-03-23T09:13:17;1.80;1.80;0.00
44933;PMS3003;30667;43.614;1.442;2024-03-23T09:15:46;1.25;1.25;0.00
44933;PMS3003;30667;43.614;1.442;2024-03-23T09:18:15;1.20;1.00;0.00
44933;PMS3003;30667;43.614;1.442;2024-03-23T09:20:41;2.75;2.00;0.25
44933;PMS3003;30667;43.614;1.442;2024-03-23T09:23:07;2.25;2.25;0.25
44933;PMS3003;30667;43.614;1.442;2024-03-23T09:25:36;5.00;2.25;0.00
44933;PMS3003;30667;43.614;1.442;2024-03-23T09:28:05;5.20;3.00;0.00
44933;PMS3003;30667;43.614;1.442;2024-03-23T09:30:32;4.60;2.20;0.00
44933;PMS3003;30667;43.614;1.442;2024-03-23T09:32:58;2.00;2.00;0.00
44933;PMS3003;30667;43.614;1.442;2024-03-23T09:35:24;2.50;2.00;0.00
44933;PMS3003;30667;43.614;1.442;2024-03-23T09:37:49;3.00;2.00;0.00
44933;PMS3003;30667;43.614;1.442;2024-03-23T09:40:15;3.00;2.50;0.00
44933;PMS3003;30667;43.614;1.442;2024-03-23T09:42:40;3.20;2.40;0.00
44933;PMS3003;30667;43.614;1.442;2024-03-23T09:45:16;1.80;1.80;0.00
44933;PMS3003;30667;43.614;1.442;2024-03-23T09:47:44;3.00;3.00;0.00
44933;PMS3003;30667;43.614;1.442;2024-03-23T09:50:12;2.40;2.00;0.00
44933;PMS3003;30667;43.614;1.442;2024-03-23T09:52:38;4.20;2.60;0.00
44933;PMS3003;30667;43.614;1.442;2024-03-23T09:55:04;2.00;2.00;0.00
44933;PMS3003;30667;43.614;1.442;2024-03-23T09:57:29;3.00;2.00;0.00
44933;PMS3003;30667;43.614;1.442;2024-03-23T09:59:55;4.75;3.00;0.00
44933;PMS3003;30667;43.614;1.442;2024-03-23T10:02:22;2.80;1.80;0.00
44933;PMS3003;30667;43.614;1.442;2024-03-23T10:04:48;3.00;3.00;0.00
44933;PMS3003;30667;43.614;1.442;2024-03-23T10:07:14;2.00;2.00;0.00
44933;PMS3003;30667;43.614;1.442;2024-03-23T10:09:42;3.00;2.20;0.00
44933;PMS3003;30667;43.614;1.442;2024-03-23T10:12:15;3.40;3.00;0.00
44933;PMS3003;30667;43.614;1.442;2024-03-23T10:14:41;5.80;5.80;0.60
44933;PMS3003;30667;43.614;1.442;2024-03-23T10:17:17;2.80;2.00;0.00
44933;PMS3003;30667;43.614;1.442;2024-03-23T10:19:46;3.00;2.00;0.00
44933;PMS3003;30667;43.614;1.442;2024-03-23T10:24:47;2.80;2.40;0.00
44933;PMS3003;30667;43.614;1.442;2024-03-23T10:27:17;2.80;1.80;0.00
44933;PMS3003;30667;43.614;1.442;2024-03-23T10:29:47;2.00;2.00;0.00
44933;PMS3003;30667;43.614;1.442;2024-03-23T10:32:14;2.00;2.00;0.00
44933;PMS3003;30667;43.614;1.442;2024-03-23T10:34:40;5.00;3.00;0.00
44933;PMS3003;30667;43.614;1.442;2024-03-23T10:37:07;2.60;2.00;0.00
44933;PMS3003;30667;43.614;1.442;2024-03-23T10:39:33;2.00;2.00;0.00
44933;PMS3003;30667;43.614;1.442;2024-03-23T10:42:03;2.20;2.00;0.00
44933;PMS3003;30667;43.614;1.442;2024-03-23T10:44:40;3.00;2.00;0.00
44933;PMS3003;30667;43.614;1.442;2024-03-23T10:47:05;5.75;3.00;0.00
44933;PMS3003;30667;43.614;1.442;2024-03-23T10:49:31;1.00;1.00;0.00
44933;PMS3003;30667;43.614;1.442;2024-03-23T10:52:02;3.00;2.00;0.00
44933;PMS3003;30667;43.614;1.442;2024-03-23T10:54:29;1.20;1.00;0.00
44933;PMS3003;30667;43.614;1.442;2024-03-23T10:59:27;2.00;1.00;0.00
44933;PMS3003;30667;43.614;1.442;2024-03-23T11:01:55;4.80;1.00;0.00
44933;PMS3003;30667;43.614;1.442;2024-03-23T11:07:00;4.00;2.80;0.00
44933;PMS3003;30667;43.614;1.442;2024-03-23T11:09:39;2.00;1.40;0.00
44933;PMS3003;30667;43.614;1.442;2024-03-23T11:14:46;2.00;2.00;0.00
44933;PMS3003;30667;43.614;1.442;2024-03-23T11:17:17;2.00;2.00;0.00
44933;PMS3003;30667;43.614;1.442;2024-03-23T11:19:44;1.60;1.40;0.00
44933;PMS3003;30667;43.614;1.442;2024-03-23T11:22:17;1.00;1.00;0.00
44933;PMS3003;30667;43.614;1.442;2024-03-23T11:25:03;1.40;1.40;0.00
44933;PMS3003;30667;43.614;1.442;2024-03-23T11:27:37;2.00;2.00;0.00
44933;PMS3003;30667;43.614;1.442;2024-03-23T11:30:15;1.00;1.00;0.00
44933;PMS3003;30667;43.614;1.442;2024-03-23T11:32:42;1.80;1.40;0.00
44933;PMS3003;30667;43.614;1.442;2024-03-23T11:35:08;3.00;1.00;0.00
44933;PMS3003;30667;43.614;1.442;2024-03-23T11:37:37;1.00;1.00;0.00
44933;PMS3003;30667;43.614;1.442;2024-03-23T11:40:20;2.00;1.00;0.00
44933;PMS3003;30667;43.614;1.442;2024-03-23T11:42:46;2.00;1.60;0.00
44933;PMS3003;30667;43.614;1.442;2024-03-23T11:45:12;2.00;1.25;0.00
44933;PMS3003;30667;43.614;1.442;2024-03-23T11:47:37;1.20;0.80;0.00
44933;PMS3003;30667;43.614;1.442;2024-03-23T11:50:03;2.00;1.00;0.00
44933;PMS3003;30667;43.614;1.442;2024-03-23T11:52:29;1.00;1.00;0.00
44933;PMS3003;30667;43.614;1.442;2024-03-23T11:55:04;2.00;1.00;0.00
44933;PMS3003;30667;43.614;1.442;2024-03-23T11:57:32;1.80;1.00;0.00
44933;PMS3003;30667;43.614;1.442;2024-03-23T11:59:58;1.75;1.00;0.00
44933;PMS3003;30667;43.614;1.442;2024-03-23T12:02:23;1.00;1.00;0.00
44933;PMS3003;30667;43.614;1.442;2024-03-23T12:04:49;0.00;0.00;0.00
44933;PMS3003;30667;43.614;1.442;2024-03-23T12:07:15;2.00;1.25;0.00
44933;PMS3003;30667;43.614;1.442;2024-03-23T12:09:44;1.20;1.20;0.00
44933;PMS3003;30667;43.614;1.442;2024-03-23T12:12:17;1.80;1.00;0.00
44933;PMS3003;30667;43.614;1.442;2024-03-23T12:15:05;3.00;2.00;0.00
44933;PMS3003;30667;43.614;1.442;2024-03-23T12:17:33;1.60;1.60;0.00
44933;PMS3003;30667;43.614;1.442;2024-03-23T12:19:59;0.20;0.20;0.00
44933;PMS3003;30667;43.614;1.442;2024-03-23T12:22:25;0.00;0.00;0.00
44933;PMS3003;30667;43.614;1.442;2024-03-23T12:24:51;1.00;1.00;0.00
44933;PMS3003;30667;43.614;1.442;2024-03-23T12:27:17;1.00;1.00;0.00
44933;PMS3003;30667;43.614;1.442;2024-03-23T12:29:42;2.00;1.00;0.00
44933;PMS3003;30667;43.614;1.442;2024-03-23T12:32:12;1.40;1.40;0.00
44933;PMS3003;30667;43.614;1.442;2024-03-23T12:34:39;0.80;0.80;0.00
44933;PMS3003;30667;43.614;1.442;2024-03-23T12:37:04;0.00;0.00;0.00
44933;PMS3003;30667;43.614;1.442;2024-03-23T12:39:31;2.40;1.60;0.00
44933;PMS3003;30667;43.614;1.442;2024-03-23T12:41:57;0.60;0.60;0.00
44933;PMS3003;30667;43.614;1.442;2024-03-23T12:44:22;5.75;2.00;0.00
44933;PMS3003;30667;43.614;1.442;2024-03-23T12:46:47;1.00;1.00;0.00
44933;PMS3003;30667;43.614;1.442;2024-03-23T12:49:13;1.00;1.00;0.00
44933;PMS3003;30667;43.614;1.442;2024-03-23T12:51:38;4.00;2.00;0.00
44933;PMS3003;30667;43.614;1.442;2024-03-23T12:54:04;1.75;1.00;0.00
44933;PMS3003;30667;43.614;1.442;2024-03-23T12:56:30;0.00;0.00;0.00
44933;PMS3003;30667;43.614;1.442;2024-03-23T12:58:58;0.00;0.00;0.00
44933;PMS3003;30667;43.614;1.442;2024-03-23T13:01:23;1.00;1.00;0.00
44933;PMS3003;30667;43.614;1.442;2024-03-23T13:03:49;0.75;0.75;0.00
44933;PMS3003;30667;43.614;1.442;2024-03-23T13:06:18;1.40;1.40;0.00
44933;PMS3003;30667;43.614;1.442;2024-03-23T13:08:47;1.40;1.00;0.00
44933;PMS3003;30667;43.614;1.442;2024-03-23T13:11:15;2.00;1.40;0.00
44933;PMS3003;30667;43.614;1.442;2024-03-23T13:13:40;2.00;1.00;0.00
44933;PMS3003;30667;43.614;1.442;2024-03-23T13:16:07;2.00;1.00;0.00
44933;PMS3003;30667;43.614;1.442;2024-03-23T13:18:32;2.75;2.75;0.00
44933;PMS3003;30667;43.614;1.442;2024-03-23T13:20:58;2.75;2.00;0.00
44933;PMS3003;30667;43.614;1.442;2024-03-23T13:23:23;1.00;1.00;0.00
44933;PMS3003;30667;43.614;1.442;2024-03-23T13:25:52;2.25;1.00;0.00
44933;PMS3003;30667;43.614;1.442;2024-03-23T13:28:19;1.00;1.00;0.00
44933;PMS3003;30667;43.614;1.442;2024-03-23T13:30:57;1.00;1.00;0.00
44933;PMS3003;30667;43.614;1.442;2024-03-23T13:33:26;1.00;1.00;0.00
44933;PMS3003;30667;43.614;1.442;2024-03-23T13:35:54;2.00;2.00;0.00
44933;PMS3003;30667;43.614;1.442;2024-03-23T13:38:21;1.00;1.00;0.00
44933;PMS3003;30667;43.614;1.442;2024-03-23T13:40:56;2.00;1.00;0.00
44933;PMS3003;30667;43.614;1.442;2024-03-23T13:43:23;0.00;0.00;0.00
44933;PMS3003;30667;43.614;1.442;2024-03-23T13:45:55;1.00;1.00;0.00
44933;PMS3003;30667;43.614;1.442;2024-03-23T13:48:22;1.00;1.00;0.00
44933;PMS3003;30667;43.614;1.442;2024-03-23T13:51:02;1.00;1.00;0.00
44933;PMS3003;30667;43.614;1.442;2024-03-23T13:53:29;0.80;0.80;0.00
44933;PMS3003;30667;43.614;1.442;2024-03-23T13:55:55;1.80;1.00;0.00
44933;PMS3003;30667;43.614;1.442;2024-03-23T13:58:21;2.00;1.00;0.00
44933;PMS3003;30667;43.614;1.442;2024-03-23T14:00:47;1.00;1.00;0.00
44933;PMS3003;30667;43.614;1.442;2024-03-23T14:03:13;1.00;1.00;0.00
44933;PMS3003;30667;43.614;1.442;2024-03-23T14:05:39;3.40;1.80;0.00
44933;PMS3003;30667;43.614;1.442;2024-03-23T14:08:06;2.40;2.00;0.00
44933;PMS3003;30667;43.614;1.442;2024-03-23T14:10:32;3.60;1.40;0.00
44933;PMS3003;30667;43.614;1.442;2024-03-23T14:12:58;2.50;1.25;0.00
44933;PMS3003;30667;43.614;1.442;2024-03-23T14:15:25;1.00;1.00;0.00
44933;PMS3003;30667;43.614;1.442;2024-03-23T14:17:51;1.60;1.60;0.00
44933;PMS3003;30667;43.614;1.442;2024-03-23T14:20:17;1.00;1.00;0.00
44933;PMS3003;30667;43.614;1.442;2024-03-23T14:22:42;1.75;1.00;0.00
44933;PMS3003;30667;43.614;1.442;2024-03-23T14:25:08;2.20;1.00;0.00
44933;PMS3003;30667;43.614;1.442;2024-03-23T14:27:34;2.75;1.75;0.00
44933;PMS3003;30667;43.614;1.442;2024-03-23T14:30:02;1.00;0.80;0.00
44933;PMS3003;30667;43.614;1.442;2024-03-23T14:32:29;1.60;1.00;0.00
44933;PMS3003;30667;43.614;1.442;2024-03-23T14:34:58;1.00;1.00;0.00
44933;PMS3003;30667;43.614;1.442;2024-03-23T14:37:25;1.20;1.00;0.00
44933;PMS3003;30667;43.614;1.442;2024-03-23T14:39:50;2.00;2.00;0.00
44933;PMS3003;30667;43.614;1.442;2024-03-23T14:42:15;2.00;2.00;0.00
44933;PMS3003;30667;43.614;1.442;2024-03-23T14:44:41;1.75;1.75;0.00
44933;PMS3003;30667;43.614;1.442;2024-03-23T14:47:07;2.00;1.20;0.00
44933;PMS3003;30667;43.614;1.442;2024-03-23T14:49:32;2.50;2.00;0.00
44933;PMS3003;30667;43.614;1.442;2024-03-23T14:51:58;1.00;1.00;0.00
44933;PMS3003;30667;43.614;1.442;2024-03-23T14:54:23;5.25;2.50;0.00
44933;PMS3003;30667;43.614;1.442;2024-03-23T14:56:49;4.00;2.00;0.00
44933;PMS3003;30667;43.614;1.442;2024-03-23T14:59:14;4.00;2.00;0.00
44933;PMS3003;30667;43.614;1.442;2024-03-23T15:01:40;2.75;0.75;0.00
44933;PMS3003;30667;43.614;1.442;2024-03-23T15:04:06;2.40;1.20;0.00
44933;PMS3003;30667;43.614;1.442;2024-03-23T15:06:32;2.00;1.00;0.00
44933;PMS3003;30667;43.614;1.442;2024-03-23T15:08:58;2.20;2.00;0.00
44933;PMS3003;30667;43.614;1.442;2024-03-23T15:11:26;3.00;2.75;0.00
44933;PMS3003;30667;43.614;1.442;2024-03-23T15:13:52;2.20;2.00;0.00
44933;PMS3003;30667;43.614;1.442;2024-03-23T15:16:17;1.00;1.00;0.00
44933;PMS3003;30667;43.614;1.442;2024-03-23T15:18:45;1.20;1.00;0.00
44933;PMS3003;30667;43.614;1.442;2024-03-23T15:21:11;2.00;2.00;0.00
44933;PMS3003;30667;43.614;1.442;2024-03-23T15:23:37;1.75;1.50;0.00
44933;PMS3003;30667;43.614;1.442;2024-03-23T15:26:03;1.00;1.00;0.00